Time;durP1;ratioP1;P1;durP2;ratioP2;P2;SDS_P1;SDS_P2;PMS_P1;PMS_P2;Temp;Humidity;BMP_temperature;BMP_pressure;BME280_temperature;BME280_humidity;BME280_pressure;Samples;Min_cycle;Max_cycle;Signal;HPM_P1;HPM_P2
2023/07/30 00:00:12;;;;;;;3.60;2.78;;;;;;;19.03;86.82;96300.09;4918742;29;20100;-78
2023/07/30 00:02:40;;;;;;;5.18;2.97;;;;;;;19.03;87.10;96299.28;4917656;29;20056;-78
2023/07/30 00:05:09;;;;;;;5.35;3.05;;;;;;;19.03;87.51;96312.50;4918215;29;20135;-78
2023/07/30 00:07:37;;;;;;;5.03;3.20;;;;;;;19.02;87.30;96326.75;4918121;29;20048;-79
2023/07/30 00:10:06;;;;;;;4.40;3.83;;;;;;;19.04;89.24;96373.03;4918880;29;20469;-79
2023/07/30 00:12:34;;;;;;;5.25;3.55;;;;;;;19.04;88.97;96415.34;4918090;29;20056;-79
2023/07/30 00:15:02;;;;;;;4.40;2.25;;;;;;;18.93;87.38;96409.13;4917341;29;20493;-79
2023/07/30 00:17:30;;;;;;;6.65;2.72;;;;;;;18.84;87.41;96373.53;4917215;29;20052;-78
2023/07/30 00:19:57;;;;;;;2.63;1.83;;;;;;;18.77;86.34;96353.56;4917128;29;20063;-78
2023/07/30 00:22:26;;;;;;;2.40;1.60;;;;;;;18.63;85.05;96374.19;4925195;29;20113;-79
2023/07/30 00:24:54;;;;;;;5.20;1.42;;;;;;;18.57;85.13;96365.41;4924336;29;20466;-79
2023/07/30 00:27:22;;;;;;;3.35;1.50;;;;;;;18.53;84.50;96374.81;4921026;29;20048;-79
2023/07/30 00:29:50;;;;;;;3.92;1.70;;;;;;;18.51;84.51;96376.91;4921161;29;20056;-79
2023/07/30 00:32:18;;;;;;;2.53;1.23;;;;;;;18.48;84.93;96362.34;4920892;29;20056;-79
2023/07/30 00:34:45;;;;;;;3.85;1.20;;;;;;;18.46;84.09;96322.16;4920447;29;20140;-79
2023/07/30 00:37:13;;;;;;;1.67;0.82;;;;;;;18.36;82.46;96319.34;4920631;29;20048;-79
2023/07/30 00:39:42;;;;;;;2.50;0.90;;;;;;;18.28;83.13;96336.38;4920249;29;20055;-79
2023/07/30 00:42:10;;;;;;;0.85;0.50;;;;;;;18.25;82.30;96322.84;4921272;29;20052;-79
2023/07/30 00:44:38;;;;;;;0.88;0.65;;;;;;;18.21;82.23;96321.69;4920006;29;20625;-79
2023/07/30 00:47:06;;;;;;;0.82;0.60;;;;;;;18.18;81.84;96303.72;4920560;29;20052;-79
2023/07/30 00:49:33;;;;;;;5.38;0.70;;;;;;;18.11;81.46;96303.84;4919907;29;20057;-79
2023/07/30 00:52:02;;;;;;;1.15;1.00;;;;;;;18.02;82.26;96327.19;4919660;29;20056;-79
2023/07/30 00:54:29;;;;;;;0.80;0.77;;;;;;;18.00;82.60;96317.91;4919684;29;20052;-79
2023/07/30 00:56:59;;;;;;;1.10;0.60;;;;;;;17.98;82.37;96314.69;4929982;29;20108;-79
2023/07/30 00:59:27;;;;;;;3.33;0.85;;;;;;;17.95;82.32;96328.34;4934918;29;20085;-78
2023/07/30 01:01:57;;;;;;;6.97;0.98;;;;;;;17.93;82.78;96344.44;4923536;29;20466;-79
2023/07/30 01:04:24;;;;;;;4.80;1.08;;;;;;;17.93;83.64;96336.53;4923922;29;20387;-78
2023/07/30 01:06:52;;;;;;;1.42;0.98;;;;;;;17.94;83.67;96346.03;4920140;29;20078;-79
2023/07/30 01:09:20;;;;;;;1.13;0.90;;;;;;;17.91;83.53;96359.69;4920268;29;20074;-79
2023/07/30 01:11:49;;;;;;;3.10;1.10;;;;;;;17.87;84.03;96351.44;4919670;29;20098;-79
2023/07/30 01:14:21;;;;;;;2.47;0.85;;;;;;;17.87;84.00;96343.53;4919746;29;20052;-79
2023/07/30 01:16:49;;;;;;;2.58;1.20;;;;;;;17.84;83.65;96356.38;4919907;29;20112;-79
2023/07/30 01:19:17;;;;;;;1.17;0.55;;;;;;;17.81;83.03;96344.44;4919888;29;20080;-79
2023/07/30 01:21:46;;;;;;;0.85;0.65;;;;;;;17.75;82.49;96348.00;4919719;29;20121;-78
2023/07/30 01:24:13;;;;;;;7.22;0.55;;;;;;;17.68;82.39;96332.28;4919419;29;20504;-79
2023/07/30 01:26:45;;;;;;;1.10;0.75;;;;;;;17.63;82.35;96332.19;4919481;29;20535;-79
2023/07/30 01:29:17;;;;;;;0.97;0.57;;;;;;;17.58;82.44;96347.94;4919885;29;20117;-79
2023/07/30 01:31:47;;;;;;;2.22;0.85;;;;;;;17.54;82.69;96346.00;4919822;29;20504;-78
2023/07/30 01:34:15;;;;;;;1.55;0.65;;;;;;;17.54;82.90;96357.34;4919415;29;20083;-78
2023/07/30 01:36:44;;;;;;;1.83;0.73;;;;;;;17.56;82.43;96352.63;4919385;29;20059;-79
2023/07/30 01:39:14;;;;;;;2.75;1.25;;;;;;;17.58;83.28;96350.56;4919088;29;20104;-79
2023/07/30 01:41:42;;;;;;;1.02;0.65;;;;;;;17.58;82.35;96353.22;4918707;29;20052;-78
2023/07/30 01:44:09;;;;;;;1.33;0.75;;;;;;;17.56;82.09;96363.19;4919793;29;20048;-79
2023/07/30 01:46:37;;;;;;;2.47;0.80;;;;;;;17.55;82.38;96358.94;4919581;29;20052;-78
2023/07/30 01:49:05;;;;;;;0.45;0.45;;;;;;;17.50;82.65;96356.19;4919386;29;20519;-79
2023/07/30 01:51:32;;;;;;;5.15;0.63;;;;;;;17.46;82.59;96349.78;4918795;29;20548;-78
2023/07/30 01:54:00;;;;;;;3.17;0.85;;;;;;;17.41;82.47;96349.66;4919280;29;20055;-79
2023/07/30 01:56:29;;;;;;;2.15;0.98;;;;;;;17.38;82.07;96350.94;4919783;29;20048;-79
2023/07/30 01:58:57;;;;;;;2.53;0.65;;;;;;;17.32;82.29;96343.13;4918518;29;20515;-79
2023/07/30 02:01:24;;;;;;;2.00;0.57;;;;;;;17.27;82.41;96349.09;4918729;29;20052;-79
2023/07/30 02:03:52;;;;;;;1.63;0.77;;;;;;;17.23;82.78;96347.94;4919182;29;20491;-79
2023/07/30 02:06:20;;;;;;;1.23;0.90;;;;;;;17.19;83.08;96355.53;4919088;29;20052;-78
2023/07/30 02:08:48;;;;;;;1.23;0.50;;;;;;;17.17;83.22;96354.16;4918701;29;20065;-79
2023/07/30 02:11:16;;;;;;;0.68;0.50;;;;;;;17.17;83.49;96348.88;4918522;29;20535;-79
2023/07/30 02:13:45;;;;;;;1.15;0.50;;;;;;;17.15;82.81;96348.31;4918507;29;20056;-79
2023/07/30 02:16:12;;;;;;;1.42;0.57;;;;;;;17.12;83.27;96349.56;4918537;29;20080;-78
2023/07/30 02:18:40;;;;;;;1.63;0.57;;;;;;;17.08;83.50;96349.22;4918548;29;20048;-78
2023/07/30 02:21:08;;;;;;;1.20;0.60;;;;;;;17.05;83.37;96348.88;4918210;29;20108;-79
2023/07/30 02:23:36;;;;;;;0.60;0.55;;;;;;;17.02;83.55;96350.13;4918808;29;20438;-78
2023/07/30 02:26:03;;;;;;;1.75;0.50;;;;;;;17.00;83.60;96343.47;4918374;29;20055;-79
2023/07/30 02:28:31;;;;;;;0.95;0.70;;;;;;;17.01;84.26;96352.97;4918636;29;20047;-79
2023/07/30 02:31:00;;;;;;;2.22;0.68;;;;;;;17.02;84.31;96357.25;4917831;29;20421;-79
2023/07/30 02:33:27;;;;;;;1.13;0.52;;;;;;;17.04;84.80;96357.81;4918317;29;20052;-79
2023/07/30 02:35:55;;;;;;;2.33;0.65;;;;;;;17.04;85.03;96353.34;4918326;29;20464;-79
2023/07/30 02:38:23;;;;;;;2.38;1.02;;;;;;;17.04;84.72;96352.53;4918035;29;20112;-79
2023/07/30 02:40:51;;;;;;;2.35;0.60;;;;;;;17.04;84.53;96352.53;4918994;29;20060;-78
2023/07/30 02:43:18;;;;;;;1.58;0.90;;;;;;;17.02;84.56;96354.59;4933552;29;20048;-79
2023/07/30 02:45:48;;;;;;;1.48;0.80;;;;;;;17.01;84.95;96355.63;4933781;29;20054;-79
2023/07/30 02:48:17;;;;;;;0.95;0.70;;;;;;;17.01;84.82;96355.63;4933304;29;20052;-79
2023/07/30 02:50:44;;;;;;;1.10;0.75;;;;;;;16.99;85.05;96355.03;4941004;29;20055;-79
2023/07/30 02:53:12;;;;;;;1.63;0.90;;;;;;;16.97;85.17;96365.81;4932866;29;20066;-78
2023/07/30 02:55:39;;;;;;;1.10;0.93;;;;;;;16.93;85.67;96356.78;4922090;29;20051;-79
2023/07/30 02:58:07;;;;;;;1.30;1.08;;;;;;;16.93;86.05;96355.97;4917719;29;20052;-78
2023/07/30 03:00:34;;;;;;;2.05;0.90;;;;;;;16.94;86.21;96357.56;4918249;29;20056;-78
2023/07/30 03:03:02;;;;;;;2.63;1.48;;;;;;;16.97;86.46;96357.13;4917542;29;20465;-79
2023/07/30 03:05:31;;;;;;;3.42;1.13;;;;;;;16.97;86.56;96359.75;4918041;29;20116;-79
2023/07/30 03:07:59;;;;;;;1.58;0.95;;;;;;;16.98;86.88;96369.25;4918017;29;20052;-79
2023/07/30 03:10:27;;;;;;;1.70;1.08;;;;;;;17.01;86.95;96371.44;4917354;29;20068;-78
2023/07/30 03:12:54;;;;;;;3.55;1.20;;;;;;;17.04;87.13;96373.63;4917312;29;20084;-79
2023/07/30 03:15:22;;;;;;;1.02;1.00;;;;;;;17.08;87.47;96370.31;4918983;29;20048;-79
2023/07/30 03:17:50;;;;;;;1.17;1.08;;;;;;;17.13;87.22;96379.34;4917783;29;20056;-79
2023/07/30 03:20:17;;;;;;;1.10;0.88;;;;;;;17.16;86.92;96377.06;4917788;29;20134;-79
2023/07/30 03:22:47;;;;;;;1.10;0.90;;;;;;;17.17;86.71;96381.31;4917307;29;20052;-78
2023/07/30 03:25:15;;;;;;;0.80;0.70;;;;;;;17.18;86.84;96380.25;4917123;29;20051;-78
2023/07/30 03:27:42;;;;;;;2.00;1.25;;;;;;;17.19;86.88;96376.63;4917574;29;20052;-79
2023/07/30 03:30:11;;;;;;;1.48;0.95;;;;;;;17.21;87.54;96385.09;4917426;29;20056;-79
2023/07/30 03:32:40;;;;;;;3.15;1.20;;;;;;;17.25;87.51;96380.16;4917478;29;20051;-79
2023/07/30 03:35:08;;;;;;;2.72;1.30;;;;;;;17.29;87.98;96379.50;4917104;29;20584;-79
2023/07/30 03:37:36;;;;;;;1.25;1.10;;;;;;;17.33;87.82;96377.19;4916850;29;20048;-79
2023/07/30 03:40:06;;;;;;;2.20;1.45;;;;;;;17.36;88.17;96381.19;4917706;29;20048;-78
2023/07/30 03:42:37;;;;;;;1.60;1.33;;;;;;;17.39;88.03;96381.53;4917230;29;20063;-78
2023/07/30 03:45:06;;;;;;;2.83;1.50;;;;;;;17.42;88.01;96380.25;4917702;29;20056;-79
2023/07/30 03:47:34;;;;;;;1.75;1.60;;;;;;;17.45;88.37;96379.81;4917607;29;20056;-80
2023/07/30 03:50:01;;;;;;;1.85;1.52;;;;;;;17.50;88.32;96382.56;4917268;29;20058;-79
2023/07/30 03:52:29;;;;;;;2.80;1.40;;;;;;;17.52;87.89;96383.13;4923344;29;20059;-79
2023/07/30 03:54:57;;;;;;;2.30;1.33;;;;;;;17.50;87.64;96386.00;4927821;29;20056;-78
2023/07/30 03:57:26;;;;;;;2.60;1.20;;;;;;;17.51;88.02;96389.44;4925426;29;20475;-78
2023/07/30 03:59:54;;;;;;;1.80;1.70;;;;;;;17.52;87.78;96385.78;4921490;29;20135;-79
2023/07/30 04:02:21;;;;;;;1.98;1.58;;;;;;;17.51;87.87;96384.16;4921290;29;20424;-79
2023/07/30 04:04:50;;;;;;;5.40;1.98;;;;;;;17.52;88.10;96395.53;4921185;29;20104;-80
2023/07/30 04:07:17;;;;;;;9.68;1.83;;;;;;;17.53;88.61;96392.63;4921255;29;20527;-79
2023/07/30 04:09:45;;;;;;;1.75;1.50;;;;;;;17.58;89.01;96390.13;4920775;29;20056;-79
2023/07/30 04:12:13;;;;;;;2.00;1.42;;;;;;;17.60;88.43;96385.44;4920865;29;20055;-79
2023/07/30 04:14:41;;;;;;;2.15;1.30;;;;;;;17.62;88.08;96396.56;4920554;29;20056;-79
2023/07/30 04:17:09;;;;;;;2.45;2.25;;;;;;;17.66;90.27;96395.03;4921158;29;20048;-79
2023/07/30 04:19:37;;;;;;;2.17;1.63;;;;;;;17.67;89.41;96394.00;4920726;29;20087;-78
2023/07/30 04:22:04;;;;;;;2.67;1.75;;;;;;;17.67;88.42;96409.03;4920055;29;20048;-78
2023/07/30 04:24:32;;;;;;;1.40;1.30;;;;;;;17.65;88.34;96409.25;4920774;29;20055;-79
2023/07/30 04:27:02;;;;;;;1.67;1.58;;;;;;;17.68;88.66;96406.16;4920735;29;20116;-78
2023/07/30 04:29:29;;;;;;;2.22;2.03;;;;;;;17.71;88.57;96413.63;4920505;29;20052;-79
2023/07/30 04:31:58;;;;;;;2.55;2.00;;;;;;;17.76;88.66;96414.78;4920341;29;20044;-78
2023/07/30 04:34:26;;;;;;;2.85;2.15;;;;;;;17.78;88.30;96417.97;4920156;29;20059;-79
2023/07/30 04:36:54;;;;;;;1.77;1.63;;;;;;;17.79;88.25;96416.94;4920484;29;20059;-78
2023/07/30 04:39:22;;;;;;;2.92;1.63;;;;;;;17.82;88.52;96421.75;4921093;29;20079;-78
2023/07/30 04:41:49;;;;;;;4.72;2.33;;;;;;;17.83;88.44;96413.63;4920471;29;20131;-79
2023/07/30 04:44:17;;;;;;;1.83;1.73;;;;;;;17.86;88.65;96420.28;4920011;29;20486;-79
2023/07/30 04:46:44;;;;;;;3.13;2.00;;;;;;;17.89;88.77;96422.47;4921797;29;20140;-79
2023/07/30 04:49:13;;;;;;;1.77;1.67;;;;;;;17.93;89.13;96426.25;4921510;29;20059;-79
2023/07/30 04:51:41;;;;;;;3.03;1.92;;;;;;;17.95;89.40;96421.53;4921531;29;20556;-78
2023/07/30 04:54:09;;;;;;;3.22;1.70;;;;;;;17.98;89.12;96421.06;4921000;29;20060;-79
2023/07/30 04:56:36;;;;;;;4.35;2.17;;;;;;;18.00;89.07;96428.75;4920063;29;20107;-78
2023/07/30 04:59:04;;;;;;;2.88;2.10;;;;;;;18.03;89.48;96429.06;4920414;29;20120;-79
2023/07/30 05:01:32;;;;;;;2.53;2.13;;;;;;;18.05;89.32;96419.09;4942044;29;20052;-78
2023/07/30 05:03:59;;;;;;;3.25;2.20;;;;;;;18.08;89.29;96420.44;4919825;29;20496;-79
2023/07/30 05:06:29;;;;;;;3.20;2.90;;;;;;;18.12;91.73;96427.66;4919676;29;20055;-79
2023/07/30 05:08:57;;;;;;;4.05;2.63;;;;;;;18.19;91.93;96426.72;4919777;29;20059;-79
2023/07/30 05:11:24;;;;;;;3.65;3.13;;;;;;;18.23;91.67;96422.59;4919501;29;20573;-79
2023/07/30 05:13:52;;;;;;;4.13;3.53;;;;;;;18.29;92.54;96424.31;4919864;29;20060;-79
2023/07/30 05:16:20;;;;;;;4.18;3.67;;;;;;;18.34;93.71;96429.66;4919608;29;20521;-79
2023/07/30 05:18:48;;;;;;;3.28;2.97;;;;;;;18.37;92.57;96431.84;4919931;29;20048;-79
2023/07/30 05:21:15;;;;;;;5.25;3.70;;;;;;;18.39;92.04;96426.31;4920249;29;20104;-78
2023/07/30 05:23:45;;;;;;;5.72;3.30;;;;;;;18.43;91.75;96433.56;4919653;29;20063;-79
2023/07/30 05:26:12;;;;;;;3.63;3.20;;;;;;;18.46;91.47;96433.09;4919836;29;20062;-78
2023/07/30 05:28:40;;;;;;;10.80;3.90;;;;;;;18.48;91.94;96431.00;4919615;29;20120;-78
2023/07/30 05:31:08;;;;;;;4.82;2.90;;;;;;;18.52;91.29;96440.06;4919391;29;20056;-79
2023/07/30 05:33:36;;;;;;;4.40;3.63;;;;;;;18.56;92.08;96439.59;4919609;29;20075;-80
2023/07/30 05:36:04;;;;;;;3.38;3.08;;;;;;;18.59;91.50;96433.84;4919357;29;20060;-78
2023/07/30 05:38:31;;;;;;;3.03;2.83;;;;;;;18.62;90.91;96433.38;4919369;29;20576;-79
2023/07/30 05:41:00;;;;;;;4.43;3.05;;;;;;;18.63;90.50;96421.75;4919513;29;20079;-78
2023/07/30 05:43:28;;;;;;;4.28;2.55;;;;;;;18.67;90.58;96433.44;4919185;29;20500;-78
2023/07/30 05:45:55;;;;;;;5.30;2.63;;;;;;;18.72;90.64;96434.34;4919499;29;20424;-78
2023/07/30 05:48:23;;;;;;;3.28;2.90;;;;;;;18.77;90.25;96440.75;4919134;29;20048;-79
2023/07/30 05:50:51;;;;;;;4.32;2.63;;;;;;;18.81;89.89;96439.28;4918955;29;20096;-79
2023/07/30 05:53:19;;;;;;;6.63;3.10;;;;;;;18.84;89.38;96436.16;4919348;29;20059;-78
2023/07/30 05:55:47;;;;;;;4.90;3.30;;;;;;;18.86;90.42;96434.06;4918894;29;20058;-79
2023/07/30 05:58:16;;;;;;;3.20;2.70;;;;;;;18.86;89.56;96436.72;4919418;29;20189;-80
2023/07/30 06:00:44;;;;;;;2.88;2.55;;;;;;;18.88;89.24;96434.66;4918555;29;20513;-78
2023/07/30 06:03:12;;;;;;;4.15;2.50;;;;;;;18.86;88.80;96432.22;4919023;29;20052;-78
2023/07/30 06:05:41;;;;;;;3.55;2.70;;;;;;;18.90;89.85;96432.56;4918863;29;20466;-79
2023/07/30 06:08:09;;;;;;;3.00;2.70;;;;;;;18.93;89.98;96426.78;4918967;29;20111;-79
2023/07/30 06:10:37;;;;;;;8.88;7.53;;;;;;;18.95;89.82;96427.34;4918950;29;20056;-78
2023/07/30 06:13:05;;;;;;;4.22;3.53;;;;;;;18.99;89.55;96443.56;4918615;29;20066;-79
2023/07/30 06:15:34;;;;;;;3.05;2.75;;;;;;;19.01;89.07;96439.63;4919449;29;20052;-79
2023/07/30 06:18:03;;;;;;;3.90;2.50;;;;;;;19.03;89.13;96436.75;4918255;29;20052;-79
2023/07/30 06:20:30;;;;;;;3.78;2.60;;;;;;;19.06;89.04;96441.53;4919044;29;20108;-79
2023/07/30 06:22:58;;;;;;;2.40;2.20;;;;;;;19.06;88.47;96438.91;4918730;29;20124;-79
2023/07/30 06:25:26;;;;;;;2.75;2.13;;;;;;;19.06;87.96;96438.91;4919032;29;20084;-79
2023/07/30 06:27:54;;;;;;;2.55;1.88;;;;;;;19.06;88.51;96447.63;4918616;29;20075;-79
2023/07/30 06:30:21;;;;;;;3.08;2.70;;;;;;;19.06;89.36;96444.19;4918477;29;20151;-78
2023/07/30 06:32:51;;;;;;;2.10;1.95;;;;;;;19.06;89.17;96439.69;4918084;29;20420;-79
2023/07/30 06:35:18;;;;;;;2.60;2.00;;;;;;;19.05;88.20;96445.25;4918474;29;20052;-79
2023/07/30 06:37:46;;;;;;;2.83;2.38;;;;;;;19.04;89.05;96447.06;4918205;29;20052;-78
2023/07/30 06:40:14;;;;;;;2.65;2.30;;;;;;;19.03;89.67;96457.91;4918422;29;20056;-79
2023/07/30 06:42:42;;;;;;;3.45;2.67;;;;;;;19.02;89.92;96456.28;4918862;29;20056;-79
2023/07/30 06:45:10;;;;;;;3.15;2.70;;;;;;;18.99;89.77;96462.06;4917844;29;20055;-79
2023/07/30 06:47:37;;;;;;;5.25;3.05;;;;;;;18.99;91.15;96464.69;4919855;29;20052;-79
2023/07/30 06:50:09;;;;;;;4.15;2.88;;;;;;;18.98;91.03;96471.00;4930067;29;20119;-78
2023/07/30 06:52:36;;;;;;;2.67;2.45;;;;;;;18.95;89.82;96472.28;4926346;29;20056;-78
2023/07/30 06:55:05;;;;;;;5.00;2.45;;;;;;;18.91;89.46;96482.56;4919224;29;20461;-78
2023/07/30 06:57:33;;;;;;;2.63;2.42;;;;;;;18.89;90.50;96486.44;4918561;29;20055;-78
2023/07/30 07:00:00;;;;;;;3.78;2.40;;;;;;;18.84;89.57;96479.22;4918266;29;20139;-78
2023/07/30 07:02:28;;;;;;;3.72;3.05;;;;;;;18.80;90.17;96479.94;4917804;29;20052;-79
2023/07/30 07:04:56;;;;;;;3.17;2.88;;;;;;;18.75;90.80;96477.97;4918300;29;20055;-78
2023/07/30 07:07:25;;;;;;;2.10;1.90;;;;;;;18.74;89.90;96474.56;4917868;29;20056;-78
2023/07/30 07:09:54;;;;;;;2.55;2.25;;;;;;;18.73;89.71;96480.84;4918865;29;20098;-79
2023/07/30 07:12:21;;;;;;;3.47;1.70;;;;;;;18.74;89.62;96481.69;4940077;29;20032;-79
2023/07/30 07:14:49;;;;;;;2.25;2.05;;;;;;;18.74;89.31;96487.75;4917551;29;20055;-78
2023/07/30 07:17:17;;;;;;;2.55;1.80;;;;;;;18.77;88.85;96494.41;4917799;29;20112;-79
2023/07/30 07:19:45;;;;;;;1.98;1.77;;;;;;;18.82;88.39;96505.09;4917826;29;20052;-79
2023/07/30 07:22:13;;;;;;;1.98;1.88;;;;;;;18.89;88.54;96489.09;4917250;29;20054;-79
2023/07/30 07:24:42;;;;;;;2.05;1.88;;;;;;;18.97;88.34;96490.56;4917396;29;20055;-79
2023/07/30 07:27:10;;;;;;;2.53;2.30;;;;;;;19.05;89.30;96493.63;4917819;29;20513;-79
2023/07/30 07:29:37;;;;;;;4.05;2.72;;;;;;;19.09;88.80;96489.47;4917380;29;20075;-79
2023/07/30 07:32:06;;;;;;;2.40;2.20;;;;;;;19.11;89.22;96487.38;4917399;29;20055;-79
2023/07/30 07:34:34;;;;;;;3.83;2.10;;;;;;;19.13;88.80;96484.47;4917726;29;20044;-79
2023/07/30 07:37:02;;;;;;;2.40;2.20;;;;;;;19.14;87.87;96491.38;4917796;29;20056;-79
2023/07/30 07:39:30;;;;;;;2.70;2.38;;;;;;;19.15;87.69;96492.97;4918596;29;20056;-78
2023/07/30 07:41:59;;;;;;;2.60;2.30;;;;;;;19.17;88.02;96492.75;4917388;29;20060;-78
2023/07/30 07:44:27;;;;;;;2.60;2.40;;;;;;;19.19;87.81;96499.41;4917058;29;20130;-79
2023/07/30 07:46:54;;;;;;;2.72;2.53;;;;;;;19.20;88.23;96498.38;4919213;29;20056;-79
2023/07/30 07:49:22;;;;;;;2.78;2.03;;;;;;;19.24;87.89;96502.16;4917527;29;20104;-78
2023/07/30 07:51:50;;;;;;;2.35;2.15;;;;;;;19.29;86.69;96504.06;4916957;29;20523;-79
2023/07/30 07:54:18;;;;;;;1.90;1.58;;;;;;;19.32;85.92;96500.94;4917755;29;20058;-79
2023/07/30 07:56:46;;;;;;;2.90;2.50;;;;;;;19.38;87.12;96496.53;4917605;29;20497;-79
2023/07/30 07:59:15;;;;;;;2.38;1.95;;;;;;;19.44;86.43;96500.84;4917426;29;20055;-79
2023/07/30 08:01:43;;;;;;;2.40;2.20;;;;;;;19.48;86.61;96512.56;4917917;29;20104;-79
2023/07/30 08:04:11;;;;;;;2.22;2.03;;;;;;;19.51;86.06;96507.59;4918078;29;20096;-78
2023/07/30 08:06:39;;;;;;;2.28;1.92;;;;;;;19.57;85.90;96503.19;4917009;29;20060;-79
2023/07/30 08:09:07;;;;;;;1.83;1.73;;;;;;;19.62;86.09;96503.28;4917603;29;20062;-79
2023/07/30 08:11:35;;;;;;;3.78;2.50;;;;;;;19.65;86.38;96508.06;4917235;29;20084;-79
2023/07/30 08:14:03;;;;;;;2.75;1.75;;;;;;;19.66;85.26;96506.25;4918102;29;20056;-79
2023/07/30 08:16:33;;;;;;;2.22;1.88;;;;;;;19.64;86.02;96510.97;4917784;29;20058;-79
2023/07/30 08:19:00;;;;;;;2.05;1.85;;;;;;;19.63;86.29;96510.16;4918372;29;20056;-78
2023/07/30 08:21:28;;;;;;;2.15;1.95;;;;;;;19.64;86.68;96516.28;4917272;29;20048;-79
2023/07/30 08:23:56;;;;;;;2.33;2.13;;;;;;;19.64;86.61;96511.78;4917567;29;20088;-78
2023/07/30 08:26:24;;;;;;;1.67;1.58;;;;;;;19.65;86.44;96505.41;4917229;29;20052;-79
2023/07/30 08:28:52;;;;;;;1.77;1.67;;;;;;;19.67;85.77;96511.28;4918252;29;20446;-79
2023/07/30 08:31:19;;;;;;;3.22;1.88;;;;;;;19.68;85.53;96512.91;4917165;29;20470;-78
2023/07/30 08:33:48;;;;;;;3.95;1.98;;;;;;;19.70;85.10;96507.38;4917110;29;20063;-78
2023/07/30 08:36:16;;;;;;;3.20;2.60;;;;;;;19.74;84.68;96517.25;4917861;29;20066;-79
2023/07/30 08:38:44;;;;;;;2.08;1.95;;;;;;;19.80;84.22;96518.13;4917462;29;20131;-78
2023/07/30 08:41:12;;;;;;;1.80;1.38;;;;;;;19.86;84.24;96516.34;4917667;29;20056;-78
2023/07/30 08:43:40;;;;;;;2.08;1.88;;;;;;;19.92;84.87;96520.69;4921303;29;20051;-79
2023/07/30 08:46:07;;;;;;;2.25;1.67;;;;;;;19.98;84.46;96518.91;4921686;29;20457;-79
2023/07/30 08:48:35;;;;;;;1.88;1.70;;;;;;;20.01;85.10;96532.47;4921303;29;20052;-79
2023/07/30 08:51:05;;;;;;;2.47;1.90;;;;;;;20.03;85.12;96534.84;4921303;29;20063;-79
2023/07/30 08:53:33;;;;;;;1.70;1.60;;;;;;;20.00;85.19;96536.13;4921584;29;20527;-79
2023/07/30 08:56:02;;;;;;;2.35;1.63;;;;;;;19.94;84.49;96531.81;4920790;29;20060;-78
2023/07/30 08:58:30;;;;;;;2.08;1.88;;;;;;;19.90;85.26;96536.00;4921802;29;20048;-79
2023/07/30 09:00:59;;;;;;;2.80;1.65;;;;;;;19.85;85.73;96541.22;4921263;29;20051;-78
2023/07/30 09:03:30;;;;;;;1.50;1.40;;;;;;;19.74;82.98;96549.00;4920840;29;20048;-78
2023/07/30 09:05:58;;;;;;;1.77;1.60;;;;;;;19.65;83.84;96561.00;4922256;29;20066;-79
2023/07/30 09:08:27;;;;;;;2.90;1.50;;;;;;;19.61;84.58;96551.13;4920666;29;20052;-79
2023/07/30 09:10:55;;;;;;;1.02;0.93;;;;;;;19.55;82.55;96555.56;4921656;29;20056;-78
2023/07/30 09:13:24;;;;;;;2.45;1.02;;;;;;;19.51;83.20;96554.44;4920443;29;20109;-79
2023/07/30 09:15:52;;;;;;;1.20;1.05;;;;;;;19.45;81.27;96552.72;4921811;29;20052;-79
2023/07/30 09:18:21;;;;;;;1.40;1.30;;;;;;;19.43;82.36;96552.16;4920935;29;20493;-78
2023/07/30 09:20:49;;;;;;;1.27;1.17;;;;;;;19.42;81.19;96547.94;4924146;29;20048;-78
2023/07/30 09:23:18;;;;;;;1.52;1.15;;;;;;;19.47;82.31;96558.59;4936697;29;20100;-80
2023/07/30 09:25:48;;;;;;;1.90;1.10;;;;;;;19.48;80.35;96553.06;4920964;29;20420;-79
2023/07/30 09:28:19;;;;;;;0.80;0.80;;;;;;;19.48;79.95;96554.88;4920990;29;20056;-79
2023/07/30 09:30:50;;;;;;;1.25;1.15;;;;;;;19.52;81.86;96563.94;4921276;29;20056;-78
2023/07/30 09:33:21;;;;;;;1.08;0.98;;;;;;;19.55;81.06;96550.25;4921919;29;20108;-79
2023/07/30 09:35:50;;;;;;;1.92;1.10;;;;;;;19.59;80.78;96540.81;4919564;29;20060;-79
2023/07/30 09:38:19;;;;;;;1.65;1.20;;;;;;;19.66;80.89;96545.94;4921589;29;20104;-79
2023/07/30 09:40:50;;;;;;;1.48;1.38;;;;;;;19.70;79.99;96545.25;4920170;29;20048;-79
2023/07/30 09:43:19;;;;;;;1.02;0.98;;;;;;;19.73;80.61;96542.09;4920479;29;20052;-79
2023/07/30 09:45:47;;;;;;;3.38;2.53;;;;;;;19.84;80.97;96542.25;4927441;29;20474;-79
2023/07/30 09:48:17;;;;;;;1.95;1.50;;;;;;;19.87;80.22;96553.16;4927989;29;20056;-79
2023/07/30 09:50:45;;;;;;;2.30;1.33;;;;;;;19.87;78.57;96552.38;4920762;29;20063;-78
2023/07/30 09:53:15;;;;;;;3.47;2.03;;;;;;;19.86;79.26;96561.34;4921659;29;20044;-79
2023/07/30 09:55:43;;;;;;;1.70;1.58;;;;;;;19.87;79.09;96558.44;4921589;29;20055;-78
2023/07/30 09:58:14;;;;;;;1.77;1.17;;;;;;;19.85;79.06;96563.19;4921904;29;20048;-79
2023/07/30 10:00:43;;;;;;;4.95;1.60;;;;;;;19.80;78.86;96555.16;4920598;29;20044;-79
2023/07/30 10:03:14;;;;;;;2.50;1.67;;;;;;;19.76;79.50;96569.94;4921845;29;20052;-80
2023/07/30 10:05:45;;;;;;;1.75;1.42;;;;;;;19.75;81.39;96560.41;4921522;29;20550;-79
2023/07/30 10:08:18;;;;;;;1.85;1.70;;;;;;;19.79;79.21;96569.47;4921368;29;20059;-79
2023/07/30 10:10:47;;;;;;;2.50;1.70;;;;;;;19.87;81.03;96562.94;4920040;29;20059;-79
2023/07/30 10:13:18;;;;;;;2.67;1.40;;;;;;;19.95;77.77;96554.59;4920797;29;20063;-79
2023/07/30 10:15:47;;;;;;;1.90;1.77;;;;;;;20.00;78.40;96556.53;4920153;29;20071;-78
2023/07/30 10:18:15;;;;;;;1.58;1.48;;;;;;;19.98;77.39;96548.81;4920110;29;20056;-79
2023/07/30 10:20:53;;;;;;;6.82;1.85;;;;;;;19.97;79.27;96552.53;4921182;29;20047;-79
2023/07/30 10:23:21;;;;;;;2.05;1.77;;;;;;;19.96;77.68;96551.72;4920439;29;20461;-79
2023/07/30 10:25:51;;;;;;;2.40;1.67;;;;;;;19.96;79.02;96556.19;4922769;29;20056;-79
2023/07/30 10:28:33;;;;;;;1.58;1.30;;;;;;;19.98;77.75;96551.47;4920183;29;20495;-79
2023/07/30 10:31:04;;;;;;;2.13;1.92;;;;;;;20.01;78.76;96558.94;4919623;29;20431;-78
2023/07/30 10:33:50;;;;;;;2.33;1.70;;;;;;;19.99;79.40;96555.72;4923027;29;20056;-79
2023/07/30 10:36:27;;;;;;;1.40;1.30;;;;;;;19.93;77.40;96557.47;4921097;29;20067;-80
2023/07/30 10:38:55;;;;;;;2.80;1.60;;;;;;;19.91;78.88;96559.56;4920766;29;20067;-78
2023/07/30 10:41:23;;;;;;;3.40;1.77;;;;;;;19.89;78.71;96563.50;4920661;29;20059;-79
2023/07/30 10:43:54;;;;;;;2.30;1.75;;;;;;;19.89;79.09;96574.09;4920325;29;20059;-78
2023/07/30 10:46:22;;;;;;;2.80;1.98;;;;;;;19.89;77.81;96571.44;4919995;29;20056;-79
2023/07/30 10:48:50;;;;;;;1.52;1.40;;;;;;;19.89;76.95;96572.25;4919392;29;20060;-79
2023/07/30 10:51:20;;;;;;;1.40;1.30;;;;;;;19.90;75.93;96586.31;4920776;29;20056;-79
2023/07/30 10:53:50;;;;;;;2.42;1.70;;;;;;;19.93;77.17;96588.47;4920434;29;20171;-79
2023/07/30 10:56:23;;;;;;;1.40;1.20;;;;;;;19.91;74.84;96590.53;4927610;29;20058;-78
2023/07/30 10:58:54;;;;;;;2.40;1.63;;;;;;;19.87;74.39;96584.13;4936183;29;20060;-78
2023/07/30 11:01:26;;;;;;;1.60;1.50;;;;;;;19.84;72.82;96589.91;4935374;29;20089;-79
2023/07/30 11:03:54;;;;;;;2.90;1.45;;;;;;;19.80;74.31;96596.72;4935047;29;20060;-79
2023/07/30 11:06:23;;;;;;;2.33;1.30;;;;;;;19.74;72.33;96596.66;4934388;29;20071;-79
2023/07/30 11:08:51;;;;;;;2.35;1.38;;;;;;;19.70;72.47;96602.63;4931892;29;20500;-79
2023/07/30 11:11:20;;;;;;;1.73;1.40;;;;;;;19.67;73.63;96589.88;4919899;29;20048;-78
2023/07/30 11:13:48;;;;;;;2.47;1.40;;;;;;;19.66;74.22;96597.00;4920312;29;20052;-79
2023/07/30 11:16:18;;;;;;;15.20;1.90;;;;;;;19.71;75.04;96591.81;4919149;29;20063;-78
2023/07/30 11:18:47;;;;;;;1.25;1.15;;;;;;;19.78;73.44;96590.88;4922419;29;20048;-79
2023/07/30 11:21:18;;;;;;;1.67;1.58;;;;;;;19.81;72.79;96593.03;4921605;29;20108;-79
2023/07/30 11:23:47;;;;;;;1.73;1.45;;;;;;;19.84;72.95;96585.41;4920308;29;20078;-79
2023/07/30 11:26:19;;;;;;;1.65;1.33;;;;;;;19.91;72.26;96595.84;4921847;29;20138;-78
2023/07/30 11:28:47;;;;;;;2.10;1.90;;;;;;;19.98;74.13;96580.59;4921149;29;20496;-78
2023/07/30 11:31:21;;;;;;;1.73;1.42;;;;;;;20.02;71.74;96581.72;4922956;29;20424;-79
2023/07/30 11:33:51;;;;;;;1.80;1.60;;;;;;;20.11;70.94;96580.25;4935794;29;20077;-79
2023/07/30 11:36:22;;;;;;;2.25;1.48;;;;;;;20.26;74.02;96579.66;4921250;29;20044;-79
2023/07/30 11:38:52;;;;;;;2.10;1.90;;;;;;;20.46;72.15;96579.13;4919972;29;20518;-79